createdAt,value
2022-09-27T00:01:47.534Z,100516.50
2022-09-27T00:04:14.645Z,100512.09
2022-09-27T00:06:41.836Z,100517.06
2022-09-27T00:09:11.004Z,100511.41
2022-09-27T00:11:41.777Z,100508.88
2022-09-27T00:14:12.295Z,100497.72
2022-09-27T00:16:41.147Z,100496.13
2022-09-27T00:19:11.950Z,100498.47
2022-09-27T00:21:39.024Z,100495.22
2022-09-27T00:24:06.455Z,100490.84
2022-09-27T00:26:33.564Z,100493.56
2022-09-27T00:29:00.787Z,100499.03
2022-09-27T00:31:30.381Z,100501.34
2022-09-27T00:34:02.711Z,100505.78
2022-09-27T00:36:31.353Z,100492.78
2022-09-27T00:39:03.065Z,100495.97
2022-09-27T00:41:33.819Z,100491.28
2022-09-27T00:44:33.841Z,100474.03
2022-09-27T00:47:25.615Z,100471.81
2022-09-27T00:50:12.704Z,100468.63
2022-09-27T00:53:00.168Z,100453.28
2022-09-27T00:55:35.282Z,100443.47
2022-09-27T00:58:05.281Z,100435.91
2022-09-27T01:00:33.081Z,100441.84
2022-09-27T01:03:01.196Z,100440.25
2022-09-27T01:05:29.910Z,100444.94
2022-09-27T01:08:00.090Z,100439.38
2022-09-27T01:10:37.461Z,100443.22
2022-09-27T01:13:23.885Z,100428.13
2022-09-27T01:16:08.555Z,100429.25
2022-09-27T01:19:07.262Z,100423.69
2022-09-27T01:21:57.588Z,100430.75
2022-09-27T01:24:49.613Z,100432.97
2022-09-27T01:27:36.568Z,100431.63
2022-09-27T01:30:22.011Z,100427.19
2022-09-27T01:32:52.237Z,100429.94
2022-09-27T01:35:45.192Z,100425.94
2022-09-27T01:38:25.128Z,100437.00
2022-09-27T01:40:58.712Z,100418.09
2022-09-27T01:43:50.594Z,100425.22
2022-09-27T01:46:30.001Z,100427.53
2022-09-27T01:49:26.844Z,100427.53
2022-09-27T01:51:59.698Z,100421.22
2022-09-27T01:54:37.615Z,100414.16
2022-09-27T01:57:42.546Z,100407.84
2022-09-27T02:00:16.961Z,100418.53
2022-09-27T02:02:57.701Z,100406.69
2022-09-27T02:05:38.024Z,100399.59
2022-09-27T02:08:45.675Z,100393.22
2022-09-27T02:11:40.680Z,100391.97
2022-09-27T02:14:17.565Z,100387.31
2022-09-27T02:17:06.079Z,100387.41
2022-09-27T02:19:54.925Z,100399.34
2022-09-27T02:22:39.675Z,100398.47
2022-09-27T02:25:25.280Z,100402.78
2022-09-27T02:28:07.104Z,100415.75
2022-09-27T02:30:37.108Z,100419.75
2022-09-27T02:33:28.411Z,100425.31
2022-09-27T02:35:55.716Z,100418.72
2022-09-27T02:38:24.081Z,100413.63
2022-09-27T02:40:52.477Z,100411.25
2022-09-27T02:43:21.605Z,100412.38
2022-09-27T02:46:08.206Z,100406.84
2022-09-27T02:48:55.674Z,100413.63
2022-09-27T02:51:30.500Z,100399.38
2022-09-27T02:54:29.964Z,100399.81
2022-09-27T02:57:16.083Z,100403.81
2022-09-27T03:00:14.627Z,100398.28
2022-09-27T03:03:22.703Z,100395.81
2022-09-27T03:06:06.679Z,100388.22
2022-09-27T03:08:34.080Z,100396.44
2022-09-27T03:11:01.315Z,100391.31
2022-09-27T03:13:28.733Z,100387.00
2022-09-27T03:16:01.435Z,100383.06
2022-09-27T03:18:49.164Z,100382.63
2022-09-27T03:21:54.867Z,100385.84
2022-09-27T03:24:22.160Z,100395.28
2022-09-27T03:26:49.968Z,100399.25
2022-09-27T03:29:17.372Z,100398.91
2022-09-27T03:31:50.053Z,100397.72
2022-09-27T03:34:26.035Z,100395.69
2022-09-27T03:36:53.353Z,100395.59
2022-09-27T03:39:20.439Z,100394.75
2022-09-27T03:41:47.585Z,100396.75
2022-09-27T03:44:14.906Z,100386.97
2022-09-27T03:46:42.162Z,100379.09
2022-09-27T03:49:09.421Z,100385.00
2022-09-27T03:51:36.628Z,100388.53
2022-09-27T03:54:04.033Z,100385.28
2022-09-27T03:56:31.543Z,100383.25
2022-09-27T03:58:58.810Z,100384.88
2022-09-27T04:01:28.063Z,100388.72
2022-09-27T04:04:11.218Z,100385.91
2022-09-27T04:06:39.052Z,100387.81
2022-09-27T04:09:06.432Z,100377.53
2022-09-27T04:11:53.230Z,100379.44
2022-09-27T04:14:20.688Z,100379.78
2022-09-27T04:17:08.414Z,100378.56
2022-09-27T04:19:56.100Z,100378.56
2022-09-27T04:22:23.943Z,100375.38
2022-09-27T04:24:51.027Z,100372.56
2022-09-27T04:27:25.920Z,100381.91
2022-09-27T04:29:53.425Z,100376.72
2022-09-27T04:32:43.706Z,100371.09
2022-09-27T04:35:55.755Z,100370.19
2022-09-27T04:38:24.282Z,100368.25
2022-09-27T04:40:51.940Z,100364.28
2022-09-27T04:43:19.645Z,100365.47
2022-09-27T04:45:47.045Z,100371.38
2022-09-27T04:48:14.480Z,100378.06
2022-09-27T04:50:41.824Z,100370.53
2022-09-27T04:53:14.573Z,100374.41
2022-09-27T04:55:47.545Z,100369.28
2022-09-27T04:58:14.889Z,100381.56
2022-09-27T05:00:44.638Z,100368.13
2022-09-27T05:03:32.552Z,100374.41
2022-09-27T05:06:10.202Z,100377.75
2022-09-27T05:08:37.624Z,100383.66
2022-09-27T05:11:20.031Z,100394.31
2022-09-27T05:14:05.916Z,100387.84
2022-09-27T05:16:42.419Z,100395.28
2022-09-27T05:19:35.457Z,100401.09
2022-09-27T05:22:10.750Z,100406.59
2022-09-27T05:24:39.431Z,100395.25
2022-09-27T05:27:10.112Z,100390.06
2022-09-27T05:29:37.730Z,100379.59
2022-09-27T05:32:25.058Z,100382.03
2022-09-27T05:35:06.547Z,100392.06
2022-09-27T05:37:34.279Z,100390.94
2022-09-27T05:40:17.012Z,100397.16
2022-09-27T05:42:50.641Z,100396.09
2022-09-27T05:45:18.187Z,100409.09
2022-09-27T05:47:53.391Z,100409.66
2022-09-27T05:50:20.924Z,100406.41
2022-09-27T05:52:49.353Z,100407.03
2022-09-27T05:55:18.336Z,100402.97
2022-09-27T05:58:00.421Z,100399.38
2022-09-27T06:00:39.193Z,100399.03
2022-09-27T06:03:25.308Z,100409.28
2022-09-27T06:06:11.109Z,100412.75
2022-09-27T06:08:46.123Z,100408.22
2022-09-27T06:11:17.576Z,100404.44
2022-09-27T06:13:46.127Z,100403.75
2022-09-27T06:16:13.301Z,100402.09
2022-09-27T06:18:43.499Z,100413.19
2022-09-27T06:21:13.347Z,100411.72
2022-09-27T06:23:43.732Z,100408.69
2022-09-27T06:26:18.391Z,100417.34
2022-09-27T06:29:04.257Z,100418.44
2022-09-27T06:31:32.985Z,100416.41
2022-09-27T06:34:23.348Z,100417.81
2022-09-27T06:36:51.662Z,100412.19
2022-09-27T06:39:20.040Z,100418.00
2022-09-27T06:42:06.247Z,100425.31
2022-09-27T06:45:02.804Z,100425.56
2022-09-27T06:47:56.292Z,100427.13
2022-09-27T06:50:44.281Z,100424.00
2022-09-27T06:53:14.358Z,100429.34
2022-09-27T06:55:42.442Z,100435.41
2022-09-27T06:58:30.138Z,100438.88
2022-09-27T07:01:17.448Z,100435.25
2022-09-27T07:04:02.982Z,100438.84
2022-09-27T07:06:48.655Z,100454.09
2022-09-27T07:09:22.493Z,100447.63
2022-09-27T07:11:50.718Z,100438.53
2022-09-27T07:14:17.966Z,100441.47
2022-09-27T07:16:46.183Z,100428.03
2022-09-27T07:19:14.782Z,100429.13
2022-09-27T07:21:43.630Z,100443.19
2022-09-27T07:24:10.855Z,100447.31
2022-09-27T07:26:39.226Z,100443.72
2022-09-27T07:29:08.859Z,100446.31
2022-09-27T07:31:37.787Z,100441.09
2022-09-27T07:34:06.131Z,100443.41
2022-09-27T07:36:33.676Z,100443.03
2022-09-27T07:39:01.477Z,100438.41
2022-09-27T07:41:32.158Z,100455.47
2022-09-27T07:43:59.900Z,100466.25
2022-09-27T07:46:30.884Z,100468.31
2022-09-27T07:49:08.218Z,100474.16
2022-09-27T07:51:57.060Z,100483.81
2022-09-27T07:54:39.474Z,100482.69
2022-09-27T07:57:06.795Z,100478.13
2022-09-27T07:59:44.063Z,100471.44
2022-09-27T08:02:15.642Z,100468.31
2022-09-27T08:04:44.085Z,100484.06
2022-09-27T08:07:14.211Z,100493.59
2022-09-27T08:09:44.441Z,100482.00
2022-09-27T08:12:13.040Z,100491.09
2022-09-27T08:14:45.074Z,100487.53
2022-09-27T08:17:16.589Z,100489.50
2022-09-27T08:20:15.895Z,100473.47
2022-09-27T08:22:53.280Z,100468.72
2022-09-27T08:25:35.033Z,100450.25
2022-09-27T08:28:22.936Z,100448.66
2022-09-27T08:31:01.849Z,100452.78
2022-09-27T08:33:32.909Z,100457.38
2022-09-27T08:36:02.112Z,100456.31
2022-09-27T08:38:29.882Z,100463.19
2022-09-27T08:40:59.373Z,100467.69
2022-09-27T08:43:26.534Z,100464.03
2022-09-27T08:46:19.766Z,100457.59
2022-09-27T08:48:51.817Z,100469.41
2022-09-27T08:51:22.423Z,100457.81
2022-09-27T08:53:58.536Z,100455.78
2022-09-27T08:56:26.932Z,100461.19
2022-09-27T08:59:06.555Z,100458.81
2022-09-27T09:01:36.046Z,100463.56
2022-09-27T09:04:11.291Z,100471.53
2022-09-27T09:07:06.786Z,100470.81
2022-09-27T09:10:12.406Z,100487.09
2022-09-27T09:12:56.324Z,100498.03
2022-09-27T09:16:16.169Z,100493.25
2022-09-27T09:19:15.421Z,100472.22
2022-09-27T09:22:11.979Z,100471.56
2022-09-27T09:24:45.821Z,100452.94
2022-09-27T09:27:26.174Z,100458.91
2022-09-27T09:30:02.176Z,100459.06
2022-09-27T09:33:02.201Z,100464.56
2022-09-27T09:35:55.612Z,100457.88
2022-09-27T09:38:48.973Z,100455.78
2022-09-27T09:41:40.729Z,100440.00
2022-09-27T09:44:21.769Z,100448.56
2022-09-27T09:46:53.996Z,100458.53
2022-09-27T09:49:39.778Z,100448.25
2022-09-27T09:52:19.804Z,100445.63
2022-09-27T09:55:22.416Z,100449.84
2022-09-27T09:58:19.072Z,100452.34
2022-09-27T10:01:00.736Z,100458.41
2022-09-27T10:03:29.050Z,100466.13
2022-09-27T10:05:56.316Z,100459.41
2022-09-27T10:08:24.712Z,100455.38
2022-09-27T10:11:33.004Z,100464.59
2022-09-27T10:14:16.657Z,100463.38
2022-09-27T10:16:58.753Z,100456.75
2022-09-27T10:19:30.569Z,100457.38
2022-09-27T10:22:03.532Z,100455.97
2022-09-27T10:24:56.406Z,100449.22
2022-09-27T10:27:53.715Z,100441.06
2022-09-27T10:30:33.206Z,100443.44
2022-09-27T10:33:15.043Z,100443.56
2022-09-27T10:35:53.680Z,100442.81
2022-09-27T10:38:37.240Z,100442.97
2022-09-27T10:41:22.421Z,100431.81
2022-09-27T10:43:50.329Z,100430.78
2022-09-27T10:46:31.500Z,100419.06
2022-09-27T10:49:25.172Z,100420.97
2022-09-27T10:52:21.167Z,100435.56
2022-09-27T10:55:02.547Z,100419.81
2022-09-27T10:57:31.318Z,100418.88
2022-09-27T11:00:07.816Z,100421.81
2022-09-27T11:02:37.799Z,100424.38
2022-09-27T11:05:15.231Z,100426.19
2022-09-27T11:07:56.616Z,100415.91
2022-09-27T11:10:38.035Z,100409.13
2022-09-27T11:13:14.878Z,100405.50
2022-09-27T11:16:01.878Z,100415.72
2022-09-27T11:18:50.700Z,100403.56
2022-09-27T11:21:26.709Z,100404.81
2022-09-27T11:24:08.394Z,100404.47
2022-09-27T11:26:50.832Z,100396.56
2022-09-27T11:29:30.333Z,100387.19
2022-09-27T11:32:49.363Z,100386.63
2022-09-27T11:35:32.801Z,100388.47
2022-09-27T11:38:08.656Z,100386.22
2022-09-27T11:41:03.322Z,100381.28
2022-09-27T11:43:40.947Z,100389.53
2022-09-27T11:46:25.327Z,100395.84
2022-09-27T11:49:08.022Z,100388.59
2022-09-27T11:51:36.480Z,100385.03
2022-09-27T11:54:29.944Z,100390.63
2022-09-27T11:57:31.846Z,100380.22
2022-09-27T12:00:24.000Z,100383.06
2022-09-27T12:03:32.782Z,100375.13
2022-09-27T12:06:11.012Z,100365.41
2022-09-27T12:08:47.328Z,100373.97
2022-09-27T12:11:24.939Z,100371.91
2022-09-27T12:13:59.693Z,100360.38
2022-09-27T12:16:28.192Z,100354.66
2022-09-27T12:18:58.792Z,100333.38
2022-09-27T12:21:45.470Z,100335.00
2022-09-27T12:24:21.580Z,100344.09
2022-09-27T12:27:26.801Z,100342.06
2022-09-27T12:29:56.582Z,100332.47
2022-09-27T12:32:30.281Z,100340.31
2022-09-27T12:35:09.679Z,100332.03
2022-09-27T12:37:47.581Z,100340.75
2022-09-27T12:40:18.056Z,100340.56
2022-09-27T12:43:14.615Z,100329.44
2022-09-27T12:46:22.955Z,100329.63
2022-09-27T12:48:51.096Z,100328.47
2022-09-27T12:51:21.370Z,100335.56
2022-09-27T12:54:22.347Z,100335.44
2022-09-27T12:57:17.989Z,100341.66
2022-09-27T13:00:05.632Z,100338.13
2022-09-27T13:03:15.414Z,100349.91
2022-09-27T13:06:09.086Z,100351.88
2022-09-27T13:08:54.441Z,100346.72
2022-09-27T13:11:59.114Z,100347.22
2022-09-27T13:14:30.233Z,100344.19
2022-09-27T13:16:57.551Z,100356.28
2022-09-27T13:19:43.461Z,100343.78
2022-09-27T13:22:38.093Z,100356.38
2022-09-27T13:25:56.226Z,100345.03
2022-09-27T13:28:52.185Z,100339.50
2022-09-27T13:32:00.162Z,100329.78
2022-09-27T13:34:50.718Z,100325.38
2022-09-27T13:37:51.800Z,100323.59
2022-09-27T13:40:30.241Z,100319.09
2022-09-27T13:43:08.088Z,100330.31
2022-09-27T13:45:57.931Z,100327.41
2022-09-27T13:49:08.223Z,100330.03
2022-09-27T13:52:03.386Z,100345.91
2022-09-27T13:54:57.212Z,100333.47
2022-09-27T13:57:40.670Z,100332.31
2022-09-27T14:00:20.200Z,100338.97
2022-09-27T14:03:05.077Z,100329.69
2022-09-27T14:05:53.328Z,100335.22
2022-09-27T14:08:40.223Z,100336.25
2022-09-27T14:11:15.275Z,100360.59
2022-09-27T14:13:46.761Z,100349.97
2022-09-27T14:16:20.975Z,100351.13
2022-09-27T14:18:54.214Z,100345.72
2022-09-27T14:21:36.396Z,100356.38
2022-09-27T14:24:36.738Z,100354.59
2022-09-27T14:27:27.832Z,100364.50
2022-09-27T14:30:15.996Z,100361.50
2022-09-27T14:32:49.141Z,100370.31
2022-09-27T14:35:42.810Z,100365.16
2022-09-27T14:38:37.712Z,100370.16
2022-09-27T14:41:11.142Z,100354.28
2022-09-27T14:43:44.742Z,100357.00
2022-09-27T14:46:27.725Z,100366.16
2022-09-27T14:48:56.108Z,100362.50
2022-09-27T14:51:32.051Z,100363.84
2022-09-27T14:54:05.791Z,100384.72
2022-09-27T14:56:38.607Z,100378.97
2022-09-27T14:59:16.511Z,100392.66
2022-09-27T15:01:51.445Z,100395.16
2022-09-27T15:04:20.660Z,100406.28
2022-09-27T15:06:49.763Z,100400.78
2022-09-27T15:09:19.239Z,100404.34
2022-09-27T15:11:53.047Z,100389.69
2022-09-27T15:14:22.575Z,100392.91
2022-09-27T15:16:52.704Z,100411.19
2022-09-27T15:19:27.164Z,100400.06
2022-09-27T15:21:55.403Z,100399.66
2022-09-27T15:24:47.610Z,100391.31
2022-09-27T15:27:18.487Z,100393.34
2022-09-27T15:29:54.185Z,100394.94
2022-09-27T15:32:29.242Z,100405.66
2022-09-27T15:34:57.960Z,100410.44
2022-09-27T15:37:38.362Z,100402.91
2022-09-27T15:40:20.868Z,100402.47
2022-09-27T15:43:00.396Z,100402.09
2022-09-27T15:45:34.057Z,100401.28
2022-09-27T15:48:14.082Z,100418.34
2022-09-27T15:50:41.833Z,100414.00
2022-09-27T15:53:10.483Z,100412.03
2022-09-27T15:55:45.386Z,100409.69
2022-09-27T15:58:19.489Z,100406.50
2022-09-27T16:00:57.831Z,100413.69
2022-09-27T16:03:26.947Z,100414.47
2022-09-27T16:05:59.994Z,100423.97
2022-09-27T16:08:29.038Z,100425.19
2022-09-27T16:10:58.479Z,100429.56
2022-09-27T16:13:30.349Z,100430.34
2022-09-27T16:16:00.782Z,100421.59
2022-09-27T16:18:30.929Z,100423.19
2022-09-27T16:21:01.418Z,100414.03
2022-09-27T16:23:28.497Z,100412.88
2022-09-27T16:25:55.805Z,100408.13
2022-09-27T16:28:22.844Z,100410.50
2022-09-27T16:30:50.050Z,100408.13
2022-09-27T16:33:17.274Z,100402.59
2022-09-27T16:35:44.500Z,100403.38
2022-09-27T16:38:11.576Z,100395.44
2022-09-27T16:40:38.941Z,100411.25
2022-09-27T16:43:09.763Z,100415.25
2022-09-27T16:45:36.936Z,100410.06
2022-09-27T16:48:04.514Z,100417.59
2022-09-27T16:50:50.341Z,100421.97
2022-09-27T16:53:17.693Z,100428.28
2022-09-27T16:55:44.771Z,100435.03
2022-09-27T16:58:12.027Z,100452.47
2022-09-27T17:00:40.861Z,100439.78
2022-09-27T17:03:09.305Z,100440.56
2022-09-27T17:05:36.379Z,100438.19
2022-09-27T17:08:05.613Z,100444.16
2022-09-27T17:10:32.897Z,100452.06
2022-09-27T17:13:01.955Z,100451.28
2022-09-27T17:15:29.761Z,100448.50
2022-09-27T17:17:57.125Z,100451.25
2022-09-27T17:20:25.542Z,100453.63
2022-09-27T17:22:52.687Z,100451.66
2022-09-27T17:25:19.832Z,100456.41
2022-09-27T17:27:46.983Z,100463.91
2022-09-27T17:30:14.149Z,100467.47
2022-09-27T17:32:41.360Z,100468.66
2022-09-27T17:35:09.422Z,100458.75
2022-09-27T17:37:36.685Z,100454.75
2022-09-27T17:40:05.282Z,100467.44
2022-09-27T17:42:33.763Z,100462.28
2022-09-27T17:45:00.875Z,100472.16
2022-09-27T17:47:46.893Z,100472.97
2022-09-27T17:50:27.356Z,100466.63
2022-09-27T17:52:56.531Z,100472.97
2022-09-27T17:55:24.051Z,100474.59
2022-09-27T17:57:51.900Z,100477.72
2022-09-27T18:00:21.000Z,100488.81
2022-09-27T18:02:48.660Z,100509.81
2022-09-27T18:05:16.082Z,100509.78
2022-09-27T18:07:43.189Z,100502.25
2022-09-27T18:10:10.616Z,100504.22
2022-09-27T18:12:39.288Z,100500.25
2022-09-27T18:15:07.080Z,100491.13
2022-09-27T18:17:35.864Z,100494.69
2022-09-27T18:20:03.315Z,100499.81
2022-09-27T18:22:31.418Z,100500.19
2022-09-27T18:24:58.602Z,100507.31
2022-09-27T18:27:26.054Z,100518.78
2022-09-27T18:29:54.092Z,100510.88
2022-09-27T18:32:21.275Z,100517.59
2022-09-27T18:34:48.300Z,100512.44
2022-09-27T18:37:15.497Z,100506.50
2022-09-27T18:39:42.693Z,100503.72
2022-09-27T18:42:09.764Z,100519.56
2022-09-27T18:44:37.001Z,100514.78
2022-09-27T18:47:04.357Z,100523.88
2022-09-27T18:49:34.066Z,100523.50
2022-09-27T18:52:02.828Z,100525.50
2022-09-27T18:54:29.988Z,100533.84
2022-09-27T18:56:57.224Z,100529.91
2022-09-27T18:59:24.522Z,100529.09
2022-09-27T19:01:52.145Z,100533.81
2022-09-27T19:04:27.051Z,100529.03
2022-09-27T19:06:55.894Z,100535.72
2022-09-27T19:09:23.654Z,100539.63
2022-09-27T19:11:53.684Z,100545.91
2022-09-27T19:14:22.739Z,100552.66
2022-09-27T19:16:50.061Z,100555.00
2022-09-27T19:19:18.802Z,100556.59
2022-09-27T19:21:47.225Z,100560.13
2022-09-27T19:24:16.061Z,100566.00
2022-09-27T19:26:43.766Z,100569.50
2022-09-27T19:29:13.308Z,100564.31
2022-09-27T19:31:42.561Z,100572.19
2022-09-27T19:34:11.006Z,100576.50
2022-09-27T19:36:38.306Z,100582.81
2022-09-27T19:39:05.559Z,100597.41
2022-09-27T19:41:33.120Z,100591.44
2022-09-27T19:44:00.410Z,100591.75
2022-09-27T19:46:28.025Z,100584.16
2022-09-27T19:48:56.344Z,100592.78
2022-09-27T19:51:26.497Z,100597.88
2022-09-27T19:53:54.621Z,100595.44
2022-09-27T19:56:23.279Z,100579.97
2022-09-27T19:58:51.112Z,100586.63
2022-09-27T20:01:23.669Z,100588.66
2022-09-27T20:03:53.598Z,100602.09
2022-09-27T20:06:21.843Z,100594.78
2022-09-27T20:08:49.214Z,100599.06
2022-09-27T20:11:21.968Z,100590.28
2022-09-27T20:13:50.065Z,100585.44
2022-09-27T20:16:20.106Z,100582.59
2022-09-27T20:18:52.953Z,100586.13
2022-09-27T20:21:21.723Z,100585.75
2022-09-27T20:23:51.343Z,100590.09
2022-09-27T20:26:20.216Z,100592.56
2022-09-27T20:28:53.767Z,100591.81
2022-09-27T20:31:23.372Z,100602.09
2022-09-27T20:33:51.342Z,100589.88
2022-09-27T20:36:30.010Z,100603.72
2022-09-27T20:39:03.633Z,100602.50
2022-09-27T20:41:33.455Z,100604.47
2022-09-27T20:44:06.575Z,100607.59
2022-09-27T20:46:35.033Z,100603.63
2022-09-27T20:49:04.974Z,100599.94
2022-09-27T20:51:34.399Z,100602.63
2022-09-27T20:54:03.133Z,100608.84
2022-09-27T20:56:32.969Z,100607.63
2022-09-27T20:59:03.027Z,100603.28
2022-09-27T21:01:32.152Z,100619.06
2022-09-27T21:04:02.250Z,100615.13
2022-09-27T21:06:31.513Z,100621.94
2022-09-27T21:09:00.211Z,100620.41
2022-09-27T21:11:27.826Z,100618.00
2022-09-27T21:13:55.018Z,100625.88
2022-09-27T21:16:27.810Z,100623.91
2022-09-27T21:18:57.059Z,100619.91
2022-09-27T21:21:25.661Z,100620.25
2022-09-27T21:24:00.505Z,100625.34
2022-09-27T21:26:30.196Z,100623.75
2022-09-27T21:28:59.824Z,100629.25
2022-09-27T21:31:32.188Z,100625.59
2022-09-27T21:34:01.719Z,100630.72
2022-09-27T21:36:32.609Z,100633.00
2022-09-27T21:39:00.659Z,100634.91
2022-09-27T21:41:28.408Z,100645.53
2022-09-27T21:43:55.994Z,100643.50
2022-09-27T21:46:26.291Z,100636.41
2022-09-27T21:48:58.551Z,100631.56
2022-09-27T21:51:31.476Z,100635.13
2022-09-27T21:54:01.112Z,100621.25
2022-09-27T21:56:33.724Z,100633.06
2022-09-27T21:59:01.709Z,100619.56
2022-09-27T22:01:31.505Z,100619.88
2022-09-27T22:03:59.942Z,100624.53
2022-09-27T22:06:30.275Z,100628.84
2022-09-27T22:08:59.094Z,100622.81
2022-09-27T22:11:32.468Z,100636.63
2022-09-27T22:14:00.359Z,100629.88
2022-09-27T22:16:30.349Z,100635.78
2022-09-27T22:18:59.153Z,100627.47
2022-09-27T22:21:31.145Z,100634.97
2022-09-27T22:24:07.723Z,100644.84
2022-09-27T22:26:37.364Z,100632.50
2022-09-27T22:29:05.657Z,100632.81
2022-09-27T22:31:33.367Z,100635.94
2022-09-27T22:34:03.815Z,100635.88
2022-09-27T22:36:31.843Z,100633.06
2022-09-27T22:38:59.421Z,100631.03
2022-09-27T22:41:27.040Z,100634.59
2022-09-27T22:43:54.200Z,100633.44
2022-09-27T22:46:22.148Z,100633.50
2022-09-27T22:48:52.908Z,100628.75
2022-09-27T22:51:20.333Z,100622.06
2022-09-27T22:53:47.791Z,100626.00
2022-09-27T22:56:18.167Z,100622.00
2022-09-27T22:58:47.564Z,100620.41
2022-09-27T23:01:19.436Z,100618.75
2022-09-27T23:03:47.683Z,100623.41
2022-09-27T23:06:16.976Z,100610.72
2022-09-27T23:08:44.796Z,100610.66
2022-09-27T23:11:17.818Z,100615.28
2022-09-27T23:13:46.031Z,100624.38
2022-09-27T23:16:15.850Z,100615.22
2022-09-27T23:18:44.312Z,100606.88
2022-09-27T23:21:13.524Z,100617.81
2022-09-27T23:23:42.916Z,100621.31
2022-09-27T23:26:12.324Z,100617.31
2022-09-27T23:28:40.057Z,100611.44
2022-09-27T23:31:17.121Z,100609.84
2022-09-27T23:33:48.617Z,100605.47
2022-09-27T23:36:18.070Z,100602.72
2022-09-27T23:38:46.989Z,100602.78
2022-09-27T23:41:15.660Z,100599.75
2022-09-27T23:43:43.219Z,100599.81
2022-09-27T23:46:11.521Z,100590.03
2022-09-27T23:48:38.950Z,100594.03
2022-09-27T23:51:10.260Z,100596.13
2022-09-27T23:53:39.756Z,100587.81
2022-09-27T23:56:17.742Z,100591.38
2022-09-27T23:58:46.478Z,100589.84
